Time;durP1;ratioP1;P1;durP2;ratioP2;P2;SDS_P1;SDS_P2;PMS_P1;PMS_P2;Temp;Humidity;BMP_temperature;BMP_pressure;BME280_temperature;BME280_humidity;BME280_pressure;Samples;Min_cycle;Max_cycle;Signal;HPM_P1;HPM_P2
2023/03/25 00:02:17;;;;;;;;;;;;;;;8.31;100.00;100161.69;5060598;28;19924;-74
2023/03/25 00:04:43;;;;;;;;;;;;;;;8.29;100.00;100145.78;5053451;28;20335;-77
2023/03/25 00:07:08;;;;;;;;;;;;;;;8.31;100.00;100153.69;5054267;28;20529;-76
2023/03/25 00:09:33;;;;;;;;;;;;;;;8.27;100.00;100161.09;5058245;28;19920;-78
2023/03/25 00:11:59;;;;;;;;;;;;;;;8.29;100.00;100150.28;5058711;28;19924;-76
2023/03/25 00:14:24;;;;;;;;;;;;;;;8.26;100.00;100151.38;5048485;28;19947;-77
2023/03/25 00:16:51;;;;;;;;;;;;;;;8.38;100.00;100147.72;5049899;28;19998;-78
2023/03/25 00:19:17;;;;;;;;;;;;;;;8.35;100.00;100155.97;5059977;28;20255;-77
2023/03/25 00:21:45;;;;;;;;;;;;;;;8.35;100.00;100161.31;5036833;28;20385;-75
2023/03/25 00:24:16;;;;;;;;;;;;;;;8.41;100.00;100151.97;5039489;28;19924;-77
2023/03/25 00:26:41;;;;;;;;;;;;;;;8.47;100.00;100147.97;5054100;28;20250;-76
2023/03/25 00:29:07;;;;;;;;;;;;;;;8.42;100.00;100151.00;5047581;28;19920;-76
2023/03/25 00:31:32;;;;;;;;;;;;;;;8.52;100.00;100151.16;5047070;28;19963;-76
2023/03/25 00:33:58;;;;;;;;;;;;;;;8.47;100.00;100147.97;5045450;28;20382;-76
2023/03/25 00:36:23;;;;;;;;;;;;;;;8.47;100.00;100150.63;5032247;28;19921;-76
2023/03/25 00:38:49;;;;;;;;;;;;;;;8.44;100.00;100154.41;5046539;28;20614;-75
2023/03/25 00:41:21;;;;;;;;;;;;;;;8.53;100.00;100148.34;5048120;28;19927;-76
2023/03/25 00:43:46;;;;;;;;;;;;;;;8.47;100.00;100151.50;5051000;28;19924;-79
2023/03/25 00:46:12;;;;;;;;;;;;;;;8.48;100.00;100142.50;5031798;28;20347;-77
2023/03/25 00:48:37;;;;;;;;;;;;;;;8.49;100.00;100138.03;5046713;28;19920;-79
2023/03/25 00:51:06;;;;;;;;;;;;;;;8.48;100.00;100149.66;5032276;28;19978;-79
2023/03/25 00:53:31;;;;;;;;;;;;;;;8.47;100.00;100147.97;5048758;28;19924;-77
2023/03/25 00:55:57;;;;;;;;;;;;;;;8.48;100.00;100137.16;5047365;28;20755;-78
2023/03/25 00:58:22;;;;;;;;;;;;;;;8.54;100.00;100138.50;5026183;28;19955;-80
2023/03/25 01:00:48;;;;;;;;;;;;;;;8.64;100.00;100158.19;5041653;28;19971;-77
2023/03/25 01:03:14;;;;;;;;;;;;;;;8.64;100.00;100146.63;5034033;28;22442;-77
2023/03/25 01:05:40;;;;;;;;;;;;;;;8.62;100.00;100137.88;5032604;28;20037;-76
2023/03/25 01:08:05;;;;;;;;;;;;;;;8.50;100.00;100140.56;5046329;28;19925;-77
2023/03/25 01:10:30;;;;;;;;;;;;;;;8.52;100.00;100146.63;5045668;28;20329;-75
2023/03/25 01:12:56;;;;;;;;;;;;;;;8.48;100.00;100136.28;5048314;28;19931;-78
2023/03/25 01:15:21;;;;;;;;;;;;;;;8.41;100.00;100144.78;5047398;28;19920;-78
2023/03/25 01:17:46;;;;;;;;;;;;;;;8.44;100.00;100133.00;5046517;28;20228;-77
2023/03/25 01:20:11;;;;;;;;;;;;;;;8.38;100.00;100126.31;5046945;28;19925;-76
2023/03/25 01:22:37;;;;;;;;;;;;;;;8.35;100.00;100134.56;5046314;28;19928;-76
2023/03/25 01:25:02;;;;;;;;;;;;;;;8.32;100.00;100140.19;5048617;28;19930;-75
2023/03/25 01:27:29;;;;;;;;;;;;;;;8.30;100.00;100139.47;5047454;28;19928;-77
2023/03/25 01:29:54;;;;;;;;;;;;;;;8.26;100.00;100129.97;5049453;28;20373;-77
2023/03/25 01:32:20;;;;;;;;;;;;;;;8.27;100.00;100131.69;5045483;28;20415;-76
2023/03/25 01:34:45;;;;;;;;;;;;;;;8.20;100.00;100139.34;5051239;28;19920;-78
2023/03/25 01:37:11;;;;;;;;;;;;;;;8.21;100.00;100129.50;5048601;28;19942;-76
2023/03/25 01:39:36;;;;;;;;;;;;;;;8.05;100.00;100135.19;5046156;28;20389;-78
2023/03/25 01:42:01;;;;;;;;;;;;;;;8.02;100.00;100136.28;5046169;28;20452;-76
2023/03/25 01:44:28;;;;;;;;;;;;;;;7.97;100.00;100143.81;5047718;28;19920;-76
2023/03/25 01:46:54;;;;;;;;;;;;;;;8.03;100.00;100140.69;5048972;28;20375;-76
2023/03/25 01:49:23;;;;;;;;;;;;;;;8.00;100.00;100143.59;5047924;28;19920;-76
2023/03/25 01:51:55;;;;;;;;;;;;;;;8.02;100.00;100143.44;5047887;28;20519;-76
2023/03/25 01:54:21;;;;;;;;;;;;;;;8.00;100.00;100129.34;5051324;28;19916;-77
2023/03/25 01:56:46;;;;;;;;;;;;;;;8.03;100.00;100138.00;5034746;28;20389;-77
2023/03/25 01:59:12;;;;;;;;;;;;;;;7.93;100.00;100137.00;5032916;28;20156;-77
2023/03/25 02:01:37;;;;;;;;;;;;;;;8.08;100.00;100134.97;5052841;28;19959;-75
2023/03/25 02:04:08;;;;;;;;;;;;;;;8.00;100.00;100143.59;5052937;28;19978;-78
2023/03/25 02:06:41;;;;;;;;;;;;;;;7.90;100.00;100134.56;5047068;28;20439;-78
2023/03/25 02:09:08;;;;;;;;;;;;;;;7.83;100.00;100134.22;5051527;28;19920;-75
2023/03/25 02:11:33;;;;;;;;;;;;;;;7.93;100.00;100129.84;5050405;28;20677;-79
2023/03/25 02:14:05;;;;;;;;;;;;;;;7.82;100.00;100127.16;5033232;28;19966;-77
2023/03/25 02:16:36;;;;;;;;;;;;;;;7.82;100.00;100116.47;5051406;28;19938;-78
2023/03/25 02:19:25;;;;;;;;;;;;;;;7.68;100.00;100133.56;5049414;28;19943;-78
2023/03/25 02:22:06;;;;;;;;;;;;;;;7.65;100.00;100134.66;5047009;28;19921;-78
2023/03/25 02:24:41;;;;;;;;;;;;;;;7.54;100.00;100129.28;5051267;28;19966;-78
2023/03/25 02:27:25;;;;;;;;;;;;;;;7.54;100.00;100123.94;5049154;28;19928;-77
2023/03/25 02:30:09;;;;;;;;;;;;;;;7.62;100.00;100124.22;5048992;28;19931;-76
2023/03/25 02:32:44;;;;;;;;;;;;;;;7.52;100.00;100115.19;5049195;28;19920;-76
2023/03/25 02:35:20;;;;;;;;;;;;;;;7.75;100.00;100144.63;5049474;28;19920;-82
2023/03/25 02:37:57;;;;;;;;;;;;;;;7.63;100.00;100125.91;5048402;28;20004;-78
2023/03/25 02:40:25;;;;;;;;;;;;;;;7.55;100.00;100128.31;5050490;28;20343;-77
2023/03/25 02:42:52;;;;;;;;;;;;;;;7.57;100.00;100122.84;5050725;28;20263;-78
2023/03/25 02:45:19;;;;;;;;;;;;;;;7.61;100.00;100135.88;5050208;28;19963;-74
2023/03/25 02:47:46;;;;;;;;;;;;;;;7.69;100.00;100119.25;5049427;28;19969;-76
2023/03/25 02:50:16;;;;;;;;;;;;;;;7.85;100.00;100121.56;5038689;28;20006;-79
2023/03/25 02:52:42;;;;;;;;;;;;;;;7.65;100.00;100094.59;5049391;28;19920;-77
2023/03/25 02:55:09;;;;;;;;;;;;;;;7.70;100.00;100128.97;5049395;28;19928;-80
2023/03/25 02:57:34;;;;;;;;;;;;;;;7.79;100.00;100119.38;5048833;28;20282;-80
2023/03/25 02:59:59;;;;;;;;;;;;;;;7.80;100.00;100107.72;5049690;28;19921;-77
2023/03/25 03:02:25;;;;;;;;;;;;;;;7.61;100.00;100101.13;5051128;28;19955;-77
2023/03/25 03:04:52;;;;;;;;;;;;;;;7.65;100.00;100105.28;5051767;28;19920;-75
2023/03/25 03:07:22;;;;;;;;;;;;;;;7.57;100.00;100102.34;5031839;28;20015;-76
2023/03/25 03:09:56;;;;;;;;;;;;;;;7.61;100.00;100113.63;5043062;28;20090;-77
2023/03/25 03:12:32;;;;;;;;;;;;;;;7.60;100.00;100120.81;5027656;28;19962;-79
2023/03/25 03:14:57;;;;;;;;;;;;;;;7.59;100.00;100105.75;5044415;28;19921;-78
2023/03/25 03:17:42;;;;;;;;;;;;;;;7.66;100.00;100106.13;5053084;28;19932;-77
2023/03/25 03:20:07;;;;;;;;;;;;;;;7.80;100.00;100110.38;5052389;28;20015;-76
2023/03/25 03:22:39;;;;;;;;;;;;;;;7.67;100.00;100117.66;5052181;28;19935;-77
2023/03/25 03:25:16;;;;;;;;;;;;;;;7.74;100.00;100103.72;5050122;28;19921;-76
2023/03/25 03:27:44;;;;;;;;;;;;;;;7.76;100.00;100111.59;5045399;28;20598;-76
2023/03/25 03:30:15;;;;;;;;;;;;;;;7.75;100.00;100121.44;5048966;28;20020;-76
2023/03/25 03:32:42;;;;;;;;;;;;;;;7.72;100.00;100120.81;5036007;28;19920;-77
2023/03/25 03:35:07;;;;;;;;;;;;;;;7.76;100.00;100115.13;5052427;28;20457;-77
2023/03/25 03:37:33;;;;;;;;;;;;;;;7.72;100.00;100123.47;5048884;28;20006;-74
2023/03/25 03:39:59;;;;;;;;;;;;;;;7.72;100.00;100124.34;5050138;28;20364;-76
2023/03/25 03:42:29;;;;;;;;;;;;;;;7.76;100.00;100120.47;5054312;28;19921;-75
2023/03/25 03:44:59;;;;;;;;;;;;;;;7.64;100.00;100121.41;5056368;28;19927;-76
2023/03/25 03:47:26;;;;;;;;;;;;;;;7.60;100.00;100130.63;5052811;28;19924;-75
2023/03/25 03:49:53;;;;;;;;;;;;;;;7.49;100.00;100126.09;5038247;28;19920;-78
2023/03/25 03:52:20;;;;;;;;;;;;;;;7.54;100.00;100131.13;5054734;28;20035;-78
2023/03/25 03:55:02;;;;;;;;;;;;;;;7.41;100.00;100123.19;5051717;28;20415;-78
2023/03/25 03:57:46;;;;;;;;;;;;;;;7.28;100.00;100134.78;5047523;28;20614;-75
2023/03/25 04:00:13;;;;;;;;;;;;;;;7.30;100.00;100127.50;5041311;28;19934;-76
2023/03/25 04:02:40;;;;;;;;;;;;;;;7.31;100.00;100120.34;5051129;28;20404;-76
2023/03/25 04:05:07;;;;;;;;;;;;;;;7.38;100.00;100124.25;5051699;28;20373;-78
2023/03/25 04:07:57;;;;;;;;;;;;;;;7.35;100.00;100114.66;5039443;28;20414;-76
2023/03/25 04:10:28;;;;;;;;;;;;;;;7.18;100.00;100121.28;5053835;28;19920;-76
2023/03/25 04:12:53;;;;;;;;;;;;;;;7.30;100.00;100108.81;5050786;28;19924;-76
2023/03/25 04:15:19;;;;;;;;;;;;;;;7.27;100.00;100113.56;5046592;28;19926;-76
2023/03/25 04:17:44;;;;;;;;;;;;;;;7.34;100.00;100112.97;5048747;28;19963;-76
2023/03/25 04:20:12;;;;;;;;;;;;;;;7.37;100.00;100121.72;5052053;28;20401;-74
2023/03/25 04:22:37;;;;;;;;;;;;;;;7.51;100.00;100105.47;5048075;28;19962;-77
2023/03/25 04:25:05;;;;;;;;;;;;;;;7.49;100.00;100107.41;5046157;28;19924;-76
2023/03/25 04:27:31;;;;;;;;;;;;;;;7.61;100.00;100097.59;5047559;28;19924;-76
2023/03/25 04:29:57;;;;;;;;;;;;;;;7.65;100.00;100104.41;5048899;28;20445;-76
2023/03/25 04:32:22;;;;;;;;;;;;;;;7.62;100.00;100108.19;5050332;28;19923;-75
2023/03/25 04:34:47;;;;;;;;;;;;;;;7.65;100.00;100109.75;5050874;28;20027;-79
2023/03/25 04:37:12;;;;;;;;;;;;;;;7.80;100.00;100099.69;5049755;28;19963;-76
2023/03/25 04:39:38;;;;;;;;;;;;;;;7.58;100.00;100109.38;5051046;28;20047;-76
2023/03/25 04:42:04;;;;;;;;;;;;;;;7.64;100.00;100119.59;5047040;28;19920;-75
2023/03/25 04:44:32;;;;;;;;;;;;;;;7.71;100.00;100111.97;5050121;28;20277;-75
2023/03/25 04:46:57;;;;;;;;;;;;;;;7.72;100.00;100100.31;5045407;28;19924;-77
2023/03/25 04:49:23;;;;;;;;;;;;;;;7.69;100.00;100113.03;5050914;28;19920;-76
2023/03/25 04:51:50;;;;;;;;;;;;;;;7.72;100.00;100112.78;5046418;28;19920;-76
2023/03/25 04:54:15;;;;;;;;;;;;;;;7.72;100.00;100102.97;5045194;28;20472;-76
2023/03/25 04:56:41;;;;;;;;;;;;;;;7.74;100.00;100073.44;5047191;28;20015;-76
2023/03/25 04:59:07;;;;;;;;;;;;;;;7.64;100.00;100092.88;5051180;28;20297;-75
2023/03/25 05:01:33;;;;;;;;;;;;;;;7.67;100.00;100098.97;5045353;28;19924;-75
2023/03/25 05:04:04;;;;;;;;;;;;;;;7.60;100.00;100093.22;5029535;28;20377;-77
2023/03/25 05:06:33;;;;;;;;;;;;;;;7.65;100.00;100088.38;5047518;28;19924;-77
2023/03/25 05:09:00;;;;;;;;;;;;;;;7.66;100.00;100092.75;5048620;28;19921;-78
2023/03/25 05:11:26;;;;;;;;;;;;;;;7.60;100.00;100079.88;5039754;28;19927;-78
2023/03/25 05:13:51;;;;;;;;;;;;;;;7.56;100.00;100108.66;5046841;28;19925;-76
2023/03/25 05:16:16;;;;;;;;;;;;;;;7.50;100.00;100117.13;5047176;28;19920;-75
2023/03/25 05:18:41;;;;;;;;;;;;;;;7.55;100.00;100108.78;5049150;28;19921;-75
2023/03/25 05:21:07;;;;;;;;;;;;;;;7.57;100.00;100106.81;5048254;28;20387;-77
2023/03/25 05:23:32;;;;;;;;;;;;;;;7.48;100.00;100114.59;5045048;28;19921;-76
2023/03/25 05:25:58;;;;;;;;;;;;;;;7.30;100.00;100122.16;5044045;28;19924;-76
2023/03/25 05:28:23;;;;;;;;;;;;;;;7.23;100.00;100120.09;5049278;28;20195;-77
2023/03/25 05:30:48;;;;;;;;;;;;;;;7.28;100.00;100121.44;5035009;28;19936;-75
2023/03/25 05:33:14;;;;;;;;;;;;;;;7.23;100.00;100117.41;5051604;28;20554;-76
2023/03/25 05:35:40;;;;;;;;;;;;;;;7.30;100.00;100123.97;5047851;28;19963;-76
2023/03/25 05:38:07;;;;;;;;;;;;;;;7.23;100.00;100133.44;5049340;28;19920;-77
2023/03/25 05:40:32;;;;;;;;;;;;;;;7.27;100.00;100130.41;5057202;28;20348;-78
2023/03/25 05:42:57;;;;;;;;;;;;;;;7.22;100.00;100153.09;5053015;28;19920;-76
2023/03/25 05:45:22;;;;;;;;;;;;;;;7.27;100.00;100125.06;5053838;28;19925;-77
2023/03/25 05:47:48;;;;;;;;;;;;;;;7.24;100.00;100141.31;5050405;28;19929;-76
2023/03/25 05:50:13;;;;;;;;;;;;;;;7.26;100.00;100131.38;5052093;28;19946;-75
2023/03/25 05:52:40;;;;;;;;;;;;;;;7.31;100.00;100129.22;5048703;28;20378;-77
2023/03/25 05:55:06;;;;;;;;;;;;;;;7.34;100.00;100128.13;5052248;28;20381;-78
2023/03/25 05:57:31;;;;;;;;;;;;;;;7.32;100.00;100127.38;5050575;28;19971;-77
2023/03/25 05:59:56;;;;;;;;;;;;;;;7.30;100.00;100122.16;5049446;28;20473;-75
2023/03/25 06:02:22;;;;;;;;;;;;;;;7.34;100.00;100122.78;5047038;28;19967;-75
2023/03/25 06:04:49;;;;;;;;;;;;;;;7.32;100.00;100130.91;5051537;28;20031;-77
2023/03/25 06:07:18;;;;;;;;;;;;;;;7.25;100.00;100142.19;5050898;28;20839;-78
2023/03/25 06:09:47;;;;;;;;;;;;;;;7.30;100.00;100140.00;5051980;28;21005;-77
2023/03/25 06:12:13;;;;;;;;;;;;;;;7.41;100.00;100142.72;5031203;28;19963;-74
2023/03/25 06:14:41;;;;;;;;;;;;;;;7.39;100.00;100136.63;5052592;28;20011;-75
2023/03/25 06:17:06;;;;;;;;;;;;;;;7.49;100.00;100132.31;5046672;28;20042;-76
2023/03/25 06:19:37;;;;;;;;;;;;;;;7.42;100.00;100148.91;5050642;28;19935;-76
2023/03/25 06:22:03;;;;;;;;;;;;;;;7.52;100.00;100128.53;5045522;28;19921;-75
2023/03/25 06:24:28;;;;;;;;;;;;;;;7.49;100.00;100137.66;5044000;28;19926;-75
2023/03/25 06:26:53;;;;;;;;;;;;;;;7.50;100.00;100142.03;5053437;28;19935;-77
2023/03/25 06:29:18;;;;;;;;;;;;;;;7.49;100.00;100147.47;5050986;28;19921;-74
2023/03/25 06:31:43;;;;;;;;;;;;;;;7.65;100.00;100140.00;5050490;28;19964;-77
2023/03/25 06:34:09;;;;;;;;;;;;;;;7.57;100.00;100141.53;5051914;28;20035;-77
2023/03/25 06:36:34;;;;;;;;;;;;;;;7.49;100.00;100150.16;5048199;28;20019;-77
2023/03/25 06:38:59;;;;;;;;;;;;;;;7.43;100.00;100145.25;5053470;28;19955;-74
2023/03/25 06:41:25;;;;;;;;;;;;;;;7.46;100.00;100145.91;5051599;28;19924;-76
2023/03/25 06:43:50;;;;;;;;;;;;;;;7.42;100.00;100154.25;5050593;28;22897;-74
2023/03/25 06:46:15;;;;;;;;;;;;;;;7.47;100.00;100152.09;5050070;28;20334;-78
2023/03/25 06:48:40;;;;;;;;;;;;;;;7.53;100.00;100151.63;5048601;28;20362;-76
2023/03/25 06:51:06;;;;;;;;;;;;;;;7.72;100.00;100155.53;5045341;28;20019;-76
2023/03/25 06:53:31;;;;;;;;;;;;;;;7.90;100.00;100153.28;5045199;28;20309;-76
2023/03/25 06:55:56;;;;;;;;;;;;;;;8.05;100.00;100160.13;5053497;28;19957;-77
2023/03/25 06:58:22;;;;;;;;;;;;;;;8.07;100.00;100163.53;5051591;28;19924;-76
2023/03/25 07:00:51;;;;;;;;;;;;;;;8.09;100.00;100161.56;5048948;28;19960;-77
2023/03/25 07:03:17;;;;;;;;;;;;;;;8.13;100.00;100164.00;5052722;28;19927;-77
2023/03/25 07:05:42;;;;;;;;;;;;;;;8.23;100.00;100157.81;5053305;28;19920;-77
2023/03/25 07:08:07;;;;;;;;;;;;;;;8.23;100.00;100162.31;5050016;28;19924;-76
2023/03/25 07:10:32;;;;;;;;;;;;;;;8.19;100.00;100158.16;5038941;28;19963;-76
2023/03/25 07:12:58;;;;;;;;;;;;;;;8.23;100.00;100162.31;5048329;28;20002;-76
2023/03/25 07:15:23;;;;;;;;;;;;;;;8.10;100.00;100170.44;5041438;28;19930;-76
2023/03/25 07:17:48;;;;;;;;;;;;;;;8.11;100.00;100161.47;5049791;28;20196;-77
2023/03/25 07:20:13;;;;;;;;;;;;;;;8.15;100.00;100156.72;5049904;28;19931;-77
2023/03/25 07:22:39;;;;;;;;;;;;;;;8.14;100.00;100155.00;5047967;28;19978;-76
2023/03/25 07:25:04;;;;;;;;;;;;;;;8.17;100.00;100157.44;5047955;28;19973;-76
2023/03/25 07:27:29;;;;;;;;;;;;;;;8.14;100.00;100166.56;5049728;28;19939;-76
2023/03/25 07:29:55;;;;;;;;;;;;;;;8.21;100.00;100170.44;5030993;28;20320;-76
2023/03/25 07:32:20;;;;;;;;;;;;;;;8.31;100.00;100167.06;5048172;28;20314;-76
2023/03/25 07:34:45;;;;;;;;;;;;;;;8.39;100.00;100160.13;5042492;28;20298;-77
2023/03/25 07:37:10;;;;;;;;;;;;;;;8.53;100.00;100171.59;5052727;28;19924;-76
2023/03/25 07:39:36;;;;;;;;;;;;;;;8.46;100.00;100181.91;5048536;28;19920;-76
2023/03/25 07:42:01;;;;;;;;;;;;;;;8.59;100.00;100175.59;5050455;28;19959;-76
2023/03/25 07:44:26;;;;;;;;;;;;;;;8.46;100.00;100171.19;5050101;28;19928;-77
2023/03/25 07:46:51;;;;;;;;;;;;;;;8.47;100.00;100185.41;5049619;28;19925;-76
2023/03/25 07:49:17;;;;;;;;;;;;;;;8.39;100.00;100181.50;5041045;28;19966;-76
2023/03/25 07:51:42;;;;;;;;;;;;;;;8.25;100.00;100185.28;5045512;28;19920;-77
2023/03/25 07:54:08;;;;;;;;;;;;;;;8.12;100.00;100197.91;5051542;28;19929;-77
2023/03/25 07:56:33;;;;;;;;;;;;;;;8.07;100.00;100195.63;5040707;28;19924;-79
2023/03/25 07:58:58;;;;;;;;;;;;;;;7.97;100.00;100194.63;5048751;28;20567;-78
2023/03/25 08:01:24;;;;;;;;;;;;;;;7.87;100.00;100206.97;5047954;28;20413;-77
2023/03/25 08:03:49;;;;;;;;;;;;;;;7.99;100.00;100194.47;5047707;28;20418;-77
2023/03/25 08:06:14;;;;;;;;;;;;;;;7.92;100.00;100188.75;5050341;28;20405;-77
2023/03/25 08:08:40;;;;;;;;;;;;;;;7.93;100.00;100194.00;5049530;28;20342;-76
2023/03/25 08:11:06;;;;;;;;;;;;;;;8.06;100.00;100209.94;5051056;28;19917;-77
2023/03/25 08:13:31;;;;;;;;;;;;;;;8.08;100.00;100202.63;5029838;28;19931;-77
2023/03/25 08:15:56;;;;;;;;;;;;;;;8.16;100.00;100207.41;5047635;28;19958;-78
2023/03/25 08:18:21;;;;;;;;;;;;;;;8.07;100.00;100174.22;5052300;28;19946;-76
2023/03/25 08:20:47;;;;;;;;;;;;;;;8.33;100.00;100206.09;5050702;28;20611;-77
2023/03/25 08:23:18;;;;;;;;;;;;;;;8.40;100.00;100207.28;5027164;28;19967;-77
2023/03/25 08:25:44;;;;;;;;;;;;;;;8.56;100.00;100208.81;5033879;28;19924;-77
2023/03/25 08:28:09;;;;;;;;;;;;;;;8.44;100.00;100209.72;5045557;28;19935;-77
2023/03/25 08:30:37;;;;;;;;;;;;;;;8.67;100.00;100213.28;5057877;28;19932;-76
2023/03/25 08:33:06;;;;;;;;;;;;;;;8.87;100.00;100209.03;5047561;28;19920;-77
2023/03/25 08:35:31;;;;;;;;;;;;;;;9.09;100.00;100213.47;5041797;28;20332;-79
2023/03/25 08:38:00;;;;;;;;;;;;;;;9.18;100.00;100227.09;5046647;28;20460;-76
2023/03/25 08:40:25;;;;;;;;;;;;;;;9.09;100.00;100224.19;5043884;28;19920;-76
2023/03/25 08:42:51;;;;;;;;;;;;;;;9.06;100.00;100234.31;5039955;28;20280;-77
2023/03/25 08:45:16;;;;;;;;;;;;;;;9.07;100.00;100225.28;5046759;28;19917;-78
2023/03/25 08:47:41;;;;;;;;;;;;;;;9.15;100.00;100226.38;5041400;28;19963;-78
2023/03/25 08:50:07;;;;;;;;;;;;;;;9.32;100.00;100229.47;5042208;28;20001;-76
2023/03/25 08:52:32;;;;;;;;;;;;;;;9.40;100.00;100218.97;5044373;28;20414;-78
2023/03/25 08:54:57;;;;;;;;;;;;;;;9.58;100.00;100224.66;5043298;28;19954;-76
2023/03/25 08:57:23;;;;;;;;;;;;;;;9.53;100.00;100231.38;5043616;28;20563;-76
2023/03/25 08:59:49;;;;;;;;;;;;;;;9.45;100.00;100222.13;5046554;28;19921;-77
2023/03/25 09:02:14;;;;;;;;;;;;;;;9.37;100.00;100221.06;5047617;28;20634;-78
2023/03/25 09:04:40;;;;;;;;;;;;;;;9.20;100.00;100227.81;5047430;28;19990;-78
2023/03/25 09:07:09;;;;;;;;;;;;;;;9.23;100.00;100232.94;5048078;28;19924;-77
2023/03/25 09:09:35;;;;;;;;;;;;;;;9.00;100.00;100227.63;5045084;28;20762;-78
2023/03/25 09:12:00;;;;;;;;;;;;;;;8.85;100.00;100227.88;5042853;28;19920;-78
2023/03/25 09:14:25;;;;;;;;;;;;;;;8.65;100.00;100242.00;5044431;28;20366;-77
2023/03/25 09:16:51;;;;;;;;;;;;;;;8.63;100.00;100235.91;5026812;28;20368;-78
2023/03/25 09:19:16;;;;;;;;;;;;;;;8.56;100.00;100232.88;5046566;28;20383;-78
2023/03/25 09:21:41;;;;;;;;;;;;;;;8.63;100.00;100231.41;5044020;28;19924;-78
2023/03/25 09:24:07;;;;;;;;;;;;;;;8.70;100.00;100240.66;5039364;28;20438;-77
2023/03/25 09:26:33;;;;;;;;;;;;;;;8.79;100.00;100230.19;5046091;28;20490;-77
2023/03/25 09:28:59;;;;;;;;;;;;;;;8.76;100.00;100249.19;5049008;28;20239;-77
2023/03/25 09:31:24;;;;;;;;;;;;;;;8.84;100.00;100236.03;5039161;28;20314;-78
2023/03/25 09:33:50;;;;;;;;;;;;;;;8.83;100.00;100224.47;5045485;28;20441;-77
2023/03/25 09:36:15;;;;;;;;;;;;;;;9.06;100.00;100224.41;5044333;28;20007;-79
2023/03/25 09:38:40;;;;;;;;;;;;;;;8.99;100.00;100229.44;5043372;28;20353;-77
2023/03/25 09:41:26;;;;;;;;;;;;;;;9.08;100.00;100235.03;5041152;28;19948;-79
2023/03/25 09:44:10;;;;;;;;;;;;;;;9.29;100.00;100227.03;5037302;28;19920;-79
2023/03/25 09:46:36;;;;;;;;;;;;;;;9.44;100.00;100216.88;5039687;28;19920;-78
2023/03/25 09:49:01;;;;;;;;;;;;;;;9.56;100.00;100225.72;5026258;28;20374;-78
2023/03/25 09:51:27;;;;;;;;;;;;;;;9.56;100.00;100225.72;5041406;28;19956;-79
2023/03/25 09:53:54;;;;;;;;;;;;;;;9.66;100.00;100232.03;5043099;28;20023;-77
2023/03/25 09:56:20;;;;;;;;;;;;;;;9.79;100.00;100236.38;5045548;28;19920;-77
2023/03/25 09:58:50;;;;;;;;;;;;;;;9.64;100.00;100250.06;5042904;28;19927;-79
2023/03/25 10:01:34;;;;;;;;;;;;;;;9.51;100.00;100236.84;5058994;28;20359;-78
2023/03/25 10:04:15;;;;;;;;;;;;;;;9.31;100.00;100241.16;5048817;28;19924;-77
2023/03/25 10:06:59;;;;;;;;;;;;;;;9.36;100.00;100240.81;5048112;28;19931;-77
2023/03/25 10:09:24;;;;;;;;;;;;;;;9.18;100.00;100245.84;5056234;28;19924;-78
2023/03/25 10:11:59;;;;;;;;;;;;;;;9.08;100.00;100253.78;5052488;28;19931;-77
2023/03/25 10:14:29;;;;;;;;;;;;;;;8.94;100.00;100254.88;5056485;28;20508;-78
2023/03/25 10:17:09;;;;;;;;;;;;;;;9.17;100.00;100258.38;5050097;28;20421;-76
2023/03/25 10:19:38;;;;;;;;;;;;;;;9.32;100.00;100252.75;5057002;28;19924;-75
2023/03/25 10:22:04;;;;;;;;;;;;;;;9.35;100.00;100257.84;5054364;28;19920;-77
2023/03/25 10:24:38;;;;;;;;;;;;;;;9.37;100.00;100251.38;5054735;28;19927;-77
2023/03/25 10:27:06;;;;;;;;;;;;;;;9.53;100.00;100258.19;5057684;28;19924;-77
2023/03/25 10:29:44;;;;;;;;;;;;;;;9.66;100.00;100269.56;5055911;28;19921;-78
2023/03/25 10:32:15;;;;;;;;;;;;;;;9.40;100.00;100274.41;5056377;28;20011;-76
2023/03/25 10:34:45;;;;;;;;;;;;;;;9.26;100.00;100264.81;5053420;28;20015;-76
2023/03/25 10:37:11;;;;;;;;;;;;;;;9.19;100.00;100264.44;5052926;28;20028;-77
2023/03/25 10:39:38;;;;;;;;;;;;;;;9.76;100.00;100275.00;5046827;28;19920;-77
2023/03/25 10:42:16;;;;;;;;;;;;;;;10.21;100.00;100272.09;5023613;28;19962;-77
2023/03/25 10:44:42;;;;;;;;;;;;;;;10.09;100.00;100273.16;5040147;28;19921;-77
2023/03/25 10:47:10;;;;;;;;;;;;;;;10.72;100.00;100264.22;5041136;28;20005;-76
2023/03/25 10:49:35;;;;;;;;;;;;;;;10.86;100.00;100276.41;5049834;28;20445;-77
2023/03/25 10:52:01;;;;;;;;;;;;;;;11.71;100.00;100267.97;5048011;28;20035;-76
2023/03/25 10:54:28;;;;;;;;;;;;;;;12.49;100.00;100263.50;5047490;28;20398;-76
2023/03/25 10:56:54;;;;;;;;;;;;;;;12.37;100.00;100249.38;5048757;28;20390;-77
2023/03/25 10:59:23;;;;;;;;;;;;;;;12.71;100.00;100265.00;5046378;28;20520;-77
2023/03/25 11:01:48;;;;;;;;;;;;;;;13.09;100.00;100254.19;5049740;28;19926;-78
2023/03/25 11:04:16;;;;;;;;;;;;;;;13.39;100.00;100279.97;5034416;28;19925;-77
2023/03/25 11:06:44;;;;;;;;;;;;;;;13.30;100.00;100259.31;5047981;28;19921;-77
2023/03/25 11:09:29;;;;;;;;;;;;;;;13.24;100.00;100260.78;5062861;28;20077;-77
2023/03/25 11:11:54;;;;;;;;;;;;;;;13.55;100.00;100265.84;5045685;28;20385;-77
2023/03/25 11:14:23;;;;;;;;;;;;;;;12.76;100.00;100273.50;5049296;28;19925;-78
2023/03/25 11:17:04;;;;;;;;;;;;;;;12.27;100.00;100273.63;5041071;28;19924;-77
2023/03/25 11:19:30;;;;;;;;;;;;;;;12.29;100.00;100274.34;5049593;28;19924;-79
2023/03/25 11:21:57;;;;;;;;;;;;;;;11.68;100.00;100263.72;5053183;28;19920;-76
2023/03/25 11:24:22;;;;;;;;;;;;;;;11.88;100.00;100262.91;5046723;28;21749;-77
2023/03/25 11:26:48;;;;;;;;;;;;;;;12.44;100.00;100262.13;5050311;28;20434;-78
2023/03/25 11:29:14;;;;;;;;;;;;;;;12.35;100.00;100271.06;5047997;28;19924;-74
2023/03/25 11:31:40;;;;;;;;;;;;;;;12.67;100.00;100271.69;5048656;28;20099;-79
2023/03/25 11:34:08;;;;;;;;;;;;;;;12.58;100.00;100276.94;5048556;28;19920;-78
2023/03/25 11:36:38;;;;;;;;;;;;;;;12.73;100.00;100277.31;5050223;28;19927;-79
2023/03/25 11:39:23;;;;;;;;;;;;;;;12.66;100.00;100269.97;5032431;28;20643;-76
2023/03/25 11:41:49;;;;;;;;;;;;;;;12.43;100.00;100273.03;5049805;28;20394;-78
2023/03/25 11:44:21;;;;;;;;;;;;;;;12.08;100.00;100282.56;5055200;28;19924;-78
2023/03/25 11:46:47;;;;;;;;;;;;;;;11.50;100.00;100268.13;5037383;28;19924;-78
2023/03/25 11:49:14;;;;;;;;;;;;;;;11.83;100.00;100280.31;5050465;28;19974;-79
2023/03/25 11:51:39;;;;;;;;;;;;;;;12.62;100.00;100293.66;5050973;28;19920;-77
2023/03/25 11:54:05;;;;;;;;;;;;;;;12.41;100.00;100291.16;5056803;28;19927;-78
2023/03/25 11:56:32;;;;;;;;;;;;;;;12.62;100.00;100287.41;5055876;28;20111;-78
2023/03/25 11:58:59;;;;;;;;;;;;;;;12.76;100.00;100276.19;5036924;28;19920;-79
2023/03/25 12:01:26;;;;;;;;;;;;;;;13.03;100.00;100255.66;5053567;28;19921;-76
2023/03/25 12:03:55;;;;;;;;;;;;;;;13.97;82.74;100255.44;5052405;28;19936;-78
2023/03/25 12:06:21;;;;;;;;;;;;;;;13.43;82.36;100267.09;5061831;28;20549;-76
2023/03/25 12:08:56;;;;;;;;;;;;;;;12.31;80.14;100256.19;5060037;28;19935;-78
2023/03/25 12:11:21;;;;;;;;;;;;;;;12.34;85.42;100263.13;5054897;28;20027;-77
2023/03/25 12:13:58;;;;;;;;;;;;;;;12.52;84.86;100272.16;5056011;28;20020;-78
2023/03/25 12:16:23;;;;;;;;;;;;;;;12.98;81.90;100260.63;5050660;28;19953;-77
2023/03/25 12:19:07;;;;;;;;;;;;;;;14.66;77.11;100252.84;5052617;28;20370;-78
2023/03/25 12:21:42;;;;;;;;;;;;;;;14.97;68.62;100245.09;5052895;28;19920;-76
2023/03/25 12:24:07;;;;;;;;;;;;;;;15.05;70.70;100256.94;5053179;28;19916;-77
2023/03/25 12:26:36;;;;;;;;;;;;;;;15.37;67.22;100239.13;5055421;28;20457;-79
2023/03/25 12:29:19;;;;;;;;;;;;;;;15.34;67.17;100232.22;5047866;28;19931;-79
2023/03/25 12:31:47;;;;;;;;;;;;;;;15.84;64.60;100230.38;5049642;28;20007;-75
2023/03/25 12:34:17;;;;;;;;;;;;;;;15.95;66.28;100228.41;5055912;28;20003;-77
2023/03/25 12:36:46;;;;;;;;;;;;;;;14.79;66.66;100230.81;5038020;28;20430;-78
2023/03/25 12:39:31;;;;;;;;;;;;;;;13.39;71.76;100231.44;5049385;28;20237;-77